Washington, District of Columbia
Traffic Map
Current Weather Conditions
Washington, District of Columbia
Broken Clouds
Broken Clouds
26°
Feels Like: 28°
Wind Chill: 26° Ceiling: 21000
Heat Index: 28° Visibility: 10mi
Dew Point: 21° Wind: 7mph
Humidity: 72% Direction: 340° (NNW)
Pressure: 29.87in Gusts: 0mph
Raw Report DataKDCA 240552Z 34006KT 10SM FEW095 BKN210 26/21 A2987 RMK AO2 SLP113 60000 T02610206 10322 20261 53001
Traffic Incident Summary
Active as of:
Severity:
Category:
InformationThere was an issue retrieving the traffic information for this location. Please try a different location or try again shortly.
Advertisements
Track Severe Weather on mobile